Time;durP1;ratioP1;P1;durP2;ratioP2;P2;SDS_P1;SDS_P2;PMS_P1;PMS_P2;Temp;Humidity;BMP_temperature;BMP_pressure;BME280_temperature;BME280_humidity;BME280_pressure;Samples;Min_cycle;Max_cycle;Signal;HPM_P1;HPM_P2
2024/04/16 00:00:13;;;;;;;;;3.33;2.00;;;;;10.84;58.14;101226.72;2185033;25;2732476;-74
2024/04/16 00:01:26;;;;;;;;;3.00;2.00;;;;;10.83;58.31;101224.97;2210311;25;2733557;-73
2024/04/16 00:02:40;;;;;;;;;3.00;1.50;;;;;10.80;57.66;101228.56;2179459;26;2736683;-73
2024/04/16 00:03:54;;;;;;;;;4.00;1.50;;;;;10.75;57.74;101220.78;2193379;26;2734611;-73
2024/04/16 00:05:07;;;;;;;;;3.17;2.33;;;;;10.72;57.26;101227.91;2169727;26;2736690;-73
2024/04/16 00:06:21;;;;;;;;;3.00;2.83;;;;;10.69;58.02;101227.06;2171389;26;2745020;-73
2024/04/16 00:07:35;;;;;;;;;3.50;3.00;;;;;10.67;57.66;101214.84;2155261;26;2734568;-73
2024/04/16 00:08:50;;;;;;;;;2.67;2.17;;;;;10.68;58.55;101221.84;2192904;26;2742363;-74
2024/04/16 00:10:04;;;;;;;;;2.67;2.67;;;;;10.64;58.03;101222.84;2170037;26;2738739;-73
2024/04/16 00:11:18;;;;;;;;;3.00;3.00;;;;;10.63;57.89;101213.22;2193335;26;2733593;-74
2024/04/16 00:12:31;;;;;;;;;3.00;2.00;;;;;10.62;58.51;101217.59;2166972;26;2749155;-73
2024/04/16 00:13:45;;;;;;;;;2.50;2.00;;;;;10.62;58.08;101219.41;2193066;26;2734585;-73
2024/04/16 00:14:59;;;;;;;;;3.50;2.17;;;;;10.63;57.92;101218.47;2171622;26;2739876;-73
2024/04/16 00:16:13;;;;;;;;;3.33;1.50;;;;;10.58;57.90;101211.56;2199083;26;2730452;-73
2024/04/16 00:17:27;;;;;;;;;2.00;1.00;;;;;10.58;58.16;101208.94;2195177;26;2729372;-74
2024/04/16 00:18:41;;;;;;;;;2.17;2.17;;;;;10.62;58.81;101219.41;2195458;26;2739827;-74
2024/04/16 00:19:55;;;;;;;;;4.00;1.67;;;;;10.56;57.68;101210.75;2169442;26;2731448;-73
2024/04/16 00:21:09;;;;;;;;;2.83;2.00;;;;;10.57;58.03;101219.47;2168678;26;2730474;-73
2024/04/16 00:22:23;;;;;;;;;1.50;1.50;;;;;10.56;58.10;101207.25;2168246;26;2737693;-73
2024/04/16 00:23:36;;;;;;;;;3.83;2.83;;;;;10.57;58.22;101211.59;2206603;26;2733565;-74
2024/04/16 00:24:50;;;;;;;;;1.17;1.17;;;;;10.54;57.22;101209.91;2168671;26;2732501;-73
2024/04/16 00:26:04;;;;;;;;;1.33;1.17;;;;;10.54;57.63;101204.66;2207043;26;2733542;-73
2024/04/16 00:27:18;;;;;;;;;4.83;2.83;;;;;10.55;58.13;101211.66;2174242;26;2746065;-73
2024/04/16 00:28:31;;;;;;;;;3.00;2.00;;;;;10.56;58.33;101209.88;2167782;26;2742948;-74
2024/04/16 00:29:45;;;;;;;;;4.83;1.17;;;;;10.55;58.56;101195.88;2168998;26;2731442;-74
2024/04/16 00:30:59;;;;;;;;;2.00;2.00;;;;;10.60;58.28;101208.03;2193372;26;2734619;-73
2024/04/16 00:32:13;;;;;;;;;6.17;3.17;;;;;10.58;57.88;101198.44;2174261;26;2754374;-73
2024/04/16 00:33:26;;;;;;;;;5.17;1.83;;;;;10.60;58.29;101208.91;2181402;26;2743993;-73
2024/04/16 00:34:40;;;;;;;;;0.00;0.00;;;;;10.61;57.87;101204.50;2183668;25;2725225;-74
2024/04/16 00:35:54;;;;;;;;;3.50;1.33;;;;;10.58;57.71;101200.19;2206509;26;2738743;-74
2024/04/16 00:37:07;;;;;;;;;2.33;2.33;;;;;10.56;57.65;101202.88;2178141;26;2738741;-73
2024/04/16 00:38:23;;;;;;;;;0.83;0.83;;;;;10.56;57.63;101197.63;2189488;25;2739826;-73
2024/04/16 00:39:36;;;;;;;;;2.33;2.00;;;;;10.55;57.58;101200.25;2208017;26;2732943;-73
2024/04/16 00:40:50;;;;;;;;;2.67;1.83;;;;;10.56;57.60;101194.97;2169263;26;2741918;-73
2024/04/16 00:42:04;;;;;;;;;2.50;1.50;;;;;10.60;58.74;101201.00;2169343;26;2737816;-73
2024/04/16 00:43:20;;;;;;;;;3.17;1.33;;;;;10.61;58.31;101192.22;2207645;26;2732549;-73
2024/04/16 00:44:34;;;;;;;;;4.67;3.17;;;;;10.63;58.20;101189.56;2209409;25;2742901;-73
2024/04/16 00:45:55;;;;;;;;;1.67;1.67;;;;;10.63;58.23;101187.78;2179093;25;2741920;-73
2024/04/16 00:47:12;;;;;;;;;1.00;1.00;;;;;10.64;57.44;101175.53;2175245;25;2739812;-74
2024/04/16 00:48:27;;;;;;;;;3.67;1.50;;;;;10.64;57.64;101189.50;2203301;26;2739808;-74
2024/04/16 00:49:41;;;;;;;;;2.17;1.00;;;;;10.66;58.30;101186.84;2169970;26;2729400;-73
2024/04/16 00:50:58;;;;;;;;;3.00;1.00;;;;;10.69;59.01;101179.72;2195355;26;2734584;-74
2024/04/16 00:52:13;;;;;;;;;3.50;2.00;;;;;10.71;58.33;101174.44;2207932;26;2729380;-74
2024/04/16 00:53:29;;;;;;;;;3.00;2.00;;;;;10.72;58.16;101170.91;2208794;25;2748140;-74
2024/04/16 00:54:44;;;;;;;;;1.83;1.67;;;;;10.70;57.87;101159.56;2209274;25;2749159;-74
2024/04/16 00:55:58;;;;;;;;;2.33;2.00;;;;;10.69;58.04;101163.97;2210136;25;2733561;-74
2024/04/16 00:57:12;;;;;;;;;2.83;2.00;;;;;10.68;57.33;101170.13;2193662;26;2741884;-74
2024/04/16 00:58:26;;;;;;;;;2.00;0.50;;;;;10.67;57.57;101163.13;2202857;25;2731467;-74
2024/04/16 00:59:42;;;;;;;;;4.17;1.17;;;;;10.64;57.61;101157.97;2209042;26;2738762;-74
2024/04/16 01:00:56;;;;;;;;;2.33;1.67;;;;;10.63;58.03;101158.88;2183109;25;2737732;-74
2024/04/16 01:02:09;;;;;;;;;4.17;2.67;;;;;10.63;58.02;101151.00;2168113;26;2733569;-74
2024/04/16 01:03:23;;;;;;;;;1.33;1.00;;;;;10.64;57.36;101149.22;2200496;25;2734595;-74
2024/04/16 01:04:37;;;;;;;;;4.17;2.67;;;;;10.61;57.88;101144.03;2195502;25;2735040;-74
2024/04/16 01:05:51;;;;;;;;;5.33;2.83;;;;;10.64;57.55;101141.34;2177012;26;2738786;-73
2024/04/16 01:07:05;;;;;;;;;2.83;1.83;;;;;10.63;57.72;101139.59;2184422;25;2739780;-74
2024/04/16 01:08:19;;;;;;;;;4.00;2.00;;;;;10.66;57.78;101147.41;2207846;25;2739844;-74
2024/04/16 01:09:32;;;;;;;;;4.50;4.50;;;;;10.66;58.40;101139.53;2183450;25;2750308;-74
2024/04/16 01:10:46;;;;;;;;;2.83;2.33;;;;;10.67;58.00;101130.72;2207038;25;2748144;-74
2024/04/16 01:12:00;;;;;;;;;2.67;2.33;;;;;10.67;57.91;101130.72;2182411;25;2737138;-74
2024/04/16 01:13:14;;;;;;;;;2.33;2.33;;;;;10.71;58.86;101142.03;2184242;25;2743977;-74
2024/04/16 01:14:27;;;;;;;;;2.17;2.17;;;;;10.69;57.96;101136.84;2183853;25;2731444;-74
2024/04/16 01:15:41;;;;;;;;;3.67;2.33;;;;;10.69;58.41;101144.72;2207842;25;2738778;-74
2024/04/16 01:16:56;;;;;;;;;4.50;1.00;;;;;10.68;57.58;101138.59;2198959;25;2743954;-74
2024/04/16 01:18:09;;;;;;;;;3.00;1.00;;;;;10.66;57.74;101139.53;2193382;26;2741918;-74
2024/04/16 01:19:23;;;;;;;;;5.33;3.67;;;;;10.66;58.63;101129.03;2192879;26;2736666;-74
2024/04/16 01:20:38;;;;;;;;;5.17;3.83;;;;;10.66;57.92;101134.28;2168687;26;2739835;-74
2024/04/16 01:21:52;;;;;;;;;5.00;3.33;;;;;10.68;58.55;101135.97;2168475;26;2746069;-74
2024/04/16 01:23:05;;;;;;;;;3.00;2.50;;;;;10.70;57.91;101143.78;2172931;26;2748136;-74
2024/04/16 01:24:20;;;;;;;;;3.17;2.00;;;;;10.70;58.74;101135.91;2183495;25;2745030;-74
2024/04/16 01:25:35;;;;;;;;;4.17;2.83;;;;;10.68;58.52;101133.34;2209692;25;2739792;-74
2024/04/16 01:26:49;;;;;;;;;4.00;2.67;;;;;10.65;57.55;101125.53;2172774;26;2747064;-74
2024/04/16 01:28:03;;;;;;;;;5.00;3.50;;;;;10.67;58.27;101144.75;2192690;26;2740841;-74
2024/04/16 01:29:17;;;;;;;;;6.17;2.00;;;;;10.63;58.05;101134.34;2167158;26;2739788;-74
2024/04/16 01:30:31;;;;;;;;;4.67;2.83;;;;;10.61;57.70;101130.91;2170121;26;2737756;-73
2024/04/16 01:31:45;;;;;;;;;4.67;2.33;;;;;10.57;57.46;101138.00;2167813;26;2734583;-74
2024/04/16 01:32:59;;;;;;;;;5.17;2.33;;;;;10.46;58.27;101127.75;2177177;26;2731486;-74
2024/04/16 01:34:12;;;;;;;;;5.83;3.00;;;;;10.46;59.04;101130.38;2167329;26;2741931;-74
2024/04/16 01:35:26;;;;;;;;;2.83;1.00;;;;;10.45;58.21;101139.16;2207705;26;2729395;-74
2024/04/16 01:36:40;;;;;;;;;4.00;2.67;;;;;10.45;59.50;101142.66;2170586;26;2746092;-74
2024/04/16 01:37:54;;;;;;;;;4.67;2.33;;;;;10.45;58.27;101129.50;2171472;26;2736671;-74
2024/04/16 01:39:07;;;;;;;;;2.00;2.00;;;;;10.44;58.51;101134.81;2182268;25;2734657;-74
2024/04/16 01:40:21;;;;;;;;;2.00;1.00;;;;;10.43;57.86;101133.94;2201659;26;2735661;-74
2024/04/16 01:41:35;;;;;;;;;3.00;1.33;;;;;10.46;57.90;101140.88;2183989;25;2734564;-74
2024/04/16 01:42:48;;;;;;;;;3.50;2.17;;;;;10.39;57.83;101137.56;2207959;25;2739877;-74
2024/04/16 01:43:59;;;;;;;;;6.67;2.00;;;;;10.40;58.48;101135.78;2154113;25;2746515;-74
2024/04/16 01:45:12;;;;;;;;;0.80;0.20;;;;;10.35;58.85;101134.13;2210442;25;2718968;-74
2024/04/16 01:46:26;;;;;;;;;2.83;2.17;;;;;10.40;58.73;101130.53;2182792;26;2735628;-74
2024/04/16 01:47:40;;;;;;;;;2.83;1.67;;;;;10.37;58.94;101128.84;2197420;26;2739888;-74
2024/04/16 01:48:54;;;;;;;;;2.00;1.33;;;;;10.38;58.14;101125.31;2182247;25;2743958;-74
2024/04/16 01:50:07;;;;;;;;;3.00;1.17;;;;;10.40;58.50;101125.25;2182369;25;2737701;-74
2024/04/16 01:51:21;;;;;;;;;3.33;2.00;;;;;10.37;58.46;101117.47;2182395;26;2739819;-74
2024/04/16 01:52:35;;;;;;;;;4.17;2.83;;;;;10.39;58.64;101121.81;2193606;26;2754389;-74
2024/04/16 01:53:49;;;;;;;;;3.33;3.17;;;;;10.38;58.23;101124.44;2167682;26;2748110;-74
2024/04/16 01:55:02;;;;;;;;;3.17;2.67;;;;;10.40;58.04;101118.25;2171406;26;2737736;-74
2024/04/16 01:56:16;;;;;;;;;5.33;4.67;;;;;10.41;58.64;101113.88;2169767;26;2743939;-74
2024/04/16 01:57:30;;;;;;;;;7.00;4.17;;;;;10.43;58.47;101125.19;2178312;26;2749189;-74
2024/04/16 01:58:44;;;;;;;;;3.50;2.17;;;;;10.40;57.97;101120.00;2183019;26;2739821;-73
2024/04/16 01:59:57;;;;;;;;;5.17;2.67;;;;;10.38;58.30;101120.06;2209199;25;2741867;-73
2024/04/16 02:01:11;;;;;;;;;2.00;1.83;;;;;10.36;58.40;101114.00;2182554;26;2738769;-73
2024/04/16 02:02:25;;;;;;;;;1.33;1.33;;;;;10.34;57.99;101114.03;2206819;25;2733542;-74
2024/04/16 02:03:38;;;;;;;;;4.67;3.33;;;;;10.37;58.61;101112.22;2207117;26;2749187;-74
2024/04/16 02:04:52;;;;;;;;;3.67;2.33;;;;;10.37;58.30;101115.69;2207458;25;2740876;-73
2024/04/16 02:06:06;;;;;;;;;5.67;2.00;;;;;10.33;58.87;101117.56;2196133;26;2752747;-74
2024/04/16 02:07:20;;;;;;;;;4.67;2.33;;;;;10.34;58.72;101119.28;2208638;25;2731543;-74
2024/04/16 02:08:34;;;;;;;;;3.50;2.83;;;;;10.33;57.79;101116.69;2182069;25;2746054;-73
2024/04/16 02:09:48;;;;;;;;;2.33;2.33;;;;;10.30;58.62;101106.25;2183131;25;2734584;-74
2024/04/16 02:11:01;;;;;;;;;3.50;2.50;;;;;10.32;58.77;101121.06;2181084;26;2736679;-74
2024/04/16 02:12:15;;;;;;;;;2.67;2.00;;;;;10.30;58.96;101116.75;2206937;26;2741879;-74
2024/04/16 02:13:29;;;;;;;;;5.67;4.00;;;;;10.30;59.00;101114.13;2206815;25;2756442;-74
2024/04/16 02:14:44;;;;;;;;;4.67;3.33;;;;;10.30;58.22;101122.88;2183118;26;2748213;-74
2024/04/16 02:15:57;;;;;;;;;4.17;2.67;;;;;10.30;58.12;101119.38;2209260;26;2740207;-74
2024/04/16 02:17:12;;;;;;;;;6.17;2.33;;;;;10.33;58.88;101122.81;2178226;26;2752329;-74
2024/04/16 02:18:26;;;;;;;;;3.67;3.67;;;;;10.32;59.31;101109.72;2182208;26;2743942;-74
2024/04/16 02:19:41;;;;;;;;;3.67;3.67;;;;;10.36;58.45;101119.25;2169061;26;2740856;-73
2024/04/16 02:20:54;;;;;;;;;3.67;1.67;;;;;10.38;58.78;101124.44;2170894;26;2743966;-74
2024/04/16 02:22:08;;;;;;;;;2.00;2.00;;;;;10.35;58.40;101110.50;2196237;26;2741875;-74
2024/04/16 02:23:22;;;;;;;;;4.17;3.67;;;;;10.35;58.61;101110.50;2180465;26;2754394;-74
2024/04/16 02:24:35;;;;;;;;;3.50;3.33;;;;;10.36;59.01;101116.63;2205978;26;2746047;-74
2024/04/16 02:25:53;;;;;;;;;4.67;3.00;;;;;10.35;58.62;101115.75;2179488;26;2740824;-73
2024/04/16 02:27:07;;;;;;;;;2.00;1.33;;;;;10.31;59.03;101122.00;2194068;26;2737713;-73
2024/04/16 02:28:21;;;;;;;;;2.83;1.50;;;;;10.34;58.50;101124.56;2167684;26;2729398;-73
2024/04/16 02:29:34;;;;;;;;;3.83;2.67;;;;;10.31;59.12;101122.00;2193986;26;2728358;-74
2024/04/16 02:30:48;;;;;;;;;7.17;3.33;;;;;10.34;58.71;101124.56;2181445;25;2746046;-73
2024/04/16 02:32:02;;;;;;;;;4.17;3.00;;;;;10.36;58.61;101119.25;2182312;26;2740090;-74
2024/04/16 02:33:16;;;;;;;;;1.83;1.83;;;;;10.36;58.23;101121.88;2182606;26;2739803;-74
2024/04/16 02:34:30;;;;;;;;;2.67;1.33;;;;;10.35;58.69;101114.88;2192575;26;2732531;-73
2024/04/16 02:35:44;;;;;;;;;2.00;2.00;;;;;10.33;58.99;101128.06;2192505;26;2737705;-74
2024/04/16 02:36:57;;;;;;;;;4.00;2.00;;;;;10.34;58.76;101128.94;2207281;26;2738742;-74
2024/04/16 02:38:11;;;;;;;;;3.83;2.67;;;;;10.33;59.07;101114.06;2166461;26;2739800;-74
2024/04/16 02:39:25;;;;;;;;;4.33;4.00;;;;;10.34;58.41;101111.41;2168443;26;2743959;-74
2024/04/16 02:40:39;;;;;;;;;2.17;1.00;;;;;10.38;58.55;101119.19;2167134;26;2742155;-74
2024/04/16 02:41:53;;;;;;;;;4.50;3.50;;;;;10.36;58.58;101116.63;2193531;26;2733001;-74
2024/04/16 02:43:07;;;;;;;;;4.33;1.83;;;;;10.40;58.75;101117.38;2175326;26;2744456;-74
2024/04/16 02:44:20;;;;;;;;;3.67;3.00;;;;;10.40;59.05;101117.38;2182095;26;2740087;-74
2024/04/16 02:45:34;;;;;;;;;3.17;2.00;;;;;10.41;59.00;101113.88;2173384;25;2732788;-74
2024/04/16 02:46:48;;;;;;;;;6.50;4.67;;;;;10.46;58.24;101101.47;2192334;26;2741872;-74
2024/04/16 02:48:02;;;;;;;;;5.67;3.00;;;;;10.47;58.61;101111.06;2175751;26;2748141;-74
2024/04/16 02:49:15;;;;;;;;;6.33;3.00;;;;;10.49;58.52;101101.41;2167299;26;2751269;-74
2024/04/16 02:50:29;;;;;;;;;2.50;2.00;;;;;10.50;58.05;101083.84;2167128;26;2743953;-74
2024/04/16 02:51:43;;;;;;;;;4.83;2.83;;;;;10.49;58.44;101106.66;2191737;26;2748169;-74
2024/04/16 02:52:57;;;;;;;;;2.33;2.33;;;;;10.49;58.56;101111.91;2172191;26;2737733;-74
2024/04/16 02:54:10;;;;;;;;;2.83;2.83;;;;;10.50;58.43;101105.72;2169091;26;2737716;-74
2024/04/16 02:55:24;;;;;;;;;4.00;3.00;;;;;10.51;58.84;101101.38;2167223;26;2748156;-73
2024/04/16 02:56:38;;;;;;;;;4.33;4.33;;;;;10.47;57.91;101100.53;2192692;26;2752318;-74
2024/04/16 02:57:51;;;;;;;;;3.67;3.33;;;;;10.43;58.50;101085.78;2193347;26;2739037;-74
2024/04/16 02:59:05;;;;;;;;;3.00;2.00;;;;;10.48;58.26;101089.16;2194075;26;2738766;-74
2024/04/16 03:00:19;;;;;;;;;2.00;2.00;;;;;10.49;58.16;101090.88;2168138;26;2739784;-74
2024/04/16 03:01:33;;;;;;;;;1.00;1.00;;;;;10.45;58.50;101087.47;2194846;26;2739887;-74
2024/04/16 03:02:46;;;;;;;;;3.00;1.67;;;;;10.46;59.00;101078.69;2207411;26;2742928;-74
2024/04/16 03:04:00;;;;;;;;;3.67;2.50;;;;;10.47;58.71;101077.75;2210185;25;2739815;-74
2024/04/16 03:05:14;;;;;;;;;2.67;1.83;;;;;10.50;58.30;101070.69;2187854;25;2741914;-74
2024/04/16 03:06:28;;;;;;;;;4.83;3.17;;;;;10.53;58.70;101084.66;2169209;26;2735736;-74
2024/04/16 03:07:43;;;;;;;;;2.83;1.33;;;;;10.48;57.86;101070.75;2183116;25;2736658;-73
2024/04/16 03:08:57;;;;;;;;;2.67;2.00;;;;;10.52;58.58;101082.94;2184091;26;2738770;-74
2024/04/16 03:10:15;;;;;;;;;3.83;3.33;;;;;10.53;58.19;101074.16;2171641;26;2739795;-74
2024/04/16 03:11:29;;;;;;;;;3.17;2.83;;;;;10.56;58.07;101081.97;2171596;26;2746058;-74
2024/04/16 03:12:43;;;;;;;;;3.00;3.00;;;;;10.54;57.87;101073.22;2182345;26;2733554;-73
2024/04/16 03:13:57;;;;;;;;;3.67;1.17;;;;;10.55;58.36;101079.34;2205563;26;2739813;-73
2024/04/16 03:15:12;;;;;;;;;1.83;1.83;;;;;10.51;58.44;101086.47;2183757;25;2737708;-74
2024/04/16 03:16:25;;;;;;;;;4.00;2.50;;;;;10.49;58.05;101085.63;2207814;26;2741902;-74
2024/04/16 03:17:39;;;;;;;;;2.17;1.33;;;;;10.48;57.43;101086.53;2207528;26;2734579;-74
2024/04/16 03:18:53;;;;;;;;;2.00;2.00;;;;;10.45;59.22;101089.22;2168482;25;2741931;-74
2024/04/16 03:20:07;;;;;;;;;4.33;1.00;;;;;10.44;58.40;101088.38;2170300;26;2739793;-74
2024/04/16 03:21:21;;;;;;;;;5.17;3.50;;;;;10.42;58.45;101078.81;2192640;26;2747151;-74
2024/04/16 03:22:35;;;;;;;;;2.83;1.17;;;;;10.42;58.53;101078.81;2180708;26;2739875;-74
2024/04/16 03:23:49;;;;;;;;;4.83;2.83;;;;;10.39;58.42;101076.25;2208047;26;2754379;-74
2024/04/16 03:25:03;;;;;;;;;2.50;1.67;;;;;10.38;58.32;101079.78;2181792;26;2737757;-74
2024/04/16 03:26:17;;;;;;;;;2.67;1.83;;;;;10.35;58.22;101081.59;2199511;26;2737732;-74
2024/04/16 03:27:31;;;;;;;;;3.33;2.00;;;;;10.37;58.39;101092.03;2181119;26;2743958;-74
2024/04/16 03:28:44;;;;;;;;;3.00;3.00;;;;;10.38;58.21;101087.66;2194718;26;2743986;-74
2024/04/16 03:29:58;;;;;;;;;2.83;2.83;;;;;10.38;58.60;101085.91;2167935;26;2741859;-74
2024/04/16 03:31:12;;;;;;;;;3.17;1.00;;;;;10.40;58.97;101080.59;2193604;26;2738196;-74
2024/04/16 03:32:26;;;;;;;;;2.33;2.17;;;;;10.44;58.12;101087.50;2194492;26;2737713;-74
2024/04/16 03:33:40;;;;;;;;;1.67;1.33;;;;;10.47;58.84;101090.03;2194626;26;2736656;-74
2024/04/16 03:34:54;;;;;;;;;2.33;1.50;;;;;10.48;58.72;101097.03;2168264;26;2730425;-74
2024/04/16 03:36:07;;;;;;;;;4.00;3.33;;;;;10.51;58.13;101093.50;2199547;26;2734612;-74
2024/04/16 03:37:21;;;;;;;;;3.33;1.00;;;;;10.51;58.97;101082.97;2182756;26;2732509;-74
2024/04/16 03:38:35;;;;;;;;;1.33;1.33;;;;;10.56;58.30;101083.72;2185327;25;2729450;-74
2024/04/16 03:39:49;;;;;;;;;3.17;2.00;;;;;10.58;58.69;101090.66;2196326;25;2744253;-74
2024/04/16 03:41:03;;;;;;;;;1.33;1.33;;;;;10.60;58.61;101081.84;2207826;26;2727321;-74
2024/04/16 03:42:17;;;;;;;;;2.67;1.67;;;;;10.60;57.88;101072.22;2183838;26;2741894;-74
2024/04/16 03:43:32;;;;;;;;;2.33;2.00;;;;;10.61;58.29;101062.56;2196293;25;2741871;-74
2024/04/16 03:44:45;;;;;;;;;8.67;3.33;;;;;10.61;57.54;101083.59;2182767;25;2752300;-74
2024/04/16 03:45:59;;;;;;;;;3.17;2.00;;;;;10.58;58.37;101069.63;2181618;25;2741890;-74
2024/04/16 03:47:13;;;;;;;;;5.00;1.00;;;;;10.58;57.78;101080.16;2183178;26;2742936;-74
2024/04/16 03:48:27;;;;;;;;;2.33;1.17;;;;;10.57;58.49;101090.69;2182181;26;2735896;-74
2024/04/16 03:49:40;;;;;;;;;7.67;2.00;;;;;10.57;58.07;101091.56;2206040;26;2743939;-74
2024/04/16 03:50:54;;;;;;;;;4.67;1.33;;;;;10.56;58.21;101084.59;2168062;26;2742415;-74
2024/04/16 03:52:08;;;;;;;;;1.00;1.00;;;;;10.55;58.23;101074.09;2169676;26;2739789;-74
2024/04/16 03:53:22;;;;;;;;;1.50;1.33;;;;;10.56;58.76;101087.22;2193968;26;2737745;-73
2024/04/16 03:54:36;;;;;;;;;2.17;1.00;;;;;10.55;58.75;101085.47;2168907;26;2737721;-74
2024/04/16 03:55:49;;;;;;;;;3.67;2.17;;;;;10.56;58.30;101091.59;2171610;26;2728334;-74
2024/04/16 03:57:03;;;;;;;;;1.00;1.00;;;;;10.53;58.81;101075.91;2184182;26;2731903;-74
2024/04/16 03:58:17;;;;;;;;;2.00;0.67;;;;;10.52;58.14;101085.56;2202678;26;2740232;-74
2024/04/16 03:59:38;;;;;;;;;2.33;1.00;;;;;10.51;59.19;101089.09;2171006;26;2733527;-74
2024/04/16 04:01:05;;;;;;;;;5.33;2.67;;;;;10.51;58.00;101075.09;2210213;25;2739788;-74
2024/04/16 04:02:20;;;;;;;;;4.33;1.83;;;;;10.53;58.08;101079.41;2184027;26;2738749;-74
2024/04/16 04:03:34;;;;;;;;;3.17;1.83;;;;;10.56;58.48;101086.34;2207981;26;2744093;-74
2024/04/16 04:04:47;;;;;;;;;2.67;0.50;;;;;10.57;59.08;101077.53;2183798;25;2741882;-74
2024/04/16 04:06:01;;;;;;;;;2.83;1.67;;;;;10.60;58.62;101082.72;2208494;25;2737725;-74
2024/04/16 04:07:15;;;;;;;;;2.33;2.33;;;;;10.61;57.98;101084.47;2207831;26;2731490;-74
2024/04/16 04:08:29;;;;;;;;;8.50;2.83;;;;;10.63;59.06;101079.16;2201071;26;2746065;-74
2024/04/16 04:09:43;;;;;;;;;1.83;1.50;;;;;10.65;58.41;101077.34;2170264;26;2739780;-74
2024/04/16 04:10:57;;;;;;;;;3.50;3.00;;;;;10.67;58.08;101080.78;2168254;26;2741910;-74
2024/04/16 04:12:11;;;;;;;;;3.50;3.00;;;;;10.65;58.82;101067.69;2170258;26;2743950;-73
2024/04/16 04:13:24;;;;;;;;;6.50;2.50;;;;;10.64;57.96;101079.09;2178738;26;2732529;-74
2024/04/16 04:14:38;;;;;;;;;2.67;2.67;;;;;10.60;58.36;101077.47;2184643;25;2739787;-74
2024/04/16 04:15:52;;;;;;;;;3.00;2.00;;;;;10.59;58.16;101078.38;2209955;25;2729372;-74
2024/04/16 04:17:06;;;;;;;;;3.67;2.67;;;;;10.60;58.32;101073.97;2180176;26;2739804;-74
2024/04/16 04:18:19;;;;;;;;;4.83;3.83;;;;;10.63;58.33;101076.53;2176653;25;2750216;-74
2024/04/16 04:19:33;;;;;;;;;1.83;1.83;;;;;10.60;58.24;101080.09;2192488;26;2741878;-74
2024/04/16 04:20:47;;;;;;;;;4.17;3.50;;;;;10.60;59.24;101082.72;2192188;26;2740874;-74
2024/04/16 04:22:01;;;;;;;;;2.33;2.33;;;;;10.61;57.95;101083.59;2194015;26;2737704;-74
2024/04/16 04:23:15;;;;;;;;;2.83;2.33;;;;;10.62;58.40;101077.44;2169114;26;2741907;-74
2024/04/16 04:24:28;;;;;;;;;5.00;2.33;;;;;10.60;58.41;101079.22;2167867;26;2741871;-74
2024/04/16 04:25:42;;;;;;;;;3.67;2.83;;;;;10.63;58.49;101089.66;2168301;26;2750223;-74
2024/04/16 04:26:56;;;;;;;;;4.17;3.33;;;;;10.61;58.54;101089.72;2174184;26;2743966;-74
2024/04/16 04:28:10;;;;;;;;;1.00;1.00;;;;;10.61;58.59;101096.72;2175802;26;2735637;-73
2024/04/16 04:29:23;;;;;;;;;4.17;2.00;;;;;10.58;58.25;101103.81;2178591;26;2752775;-73
2024/04/16 04:30:37;;;;;;;;;3.83;2.00;;;;;10.57;59.00;101098.56;2194664;26;2743989;-74
2024/04/16 04:31:51;;;;;;;;;2.17;1.50;;;;;10.55;58.37;101096.00;2207527;26;2738727;-73
2024/04/16 04:33:05;;;;;;;;;3.17;2.33;;;;;10.52;58.61;101093.44;2208371;25;2739840;-74
2024/04/16 04:34:18;;;;;;;;;3.17;2.83;;;;;10.54;58.44;101096.03;2182331;25;2739772;-73
2024/04/16 04:35:32;;;;;;;;;3.83;2.00;;;;;10.54;58.65;101096.88;2206520;26;2750272;-74
2024/04/16 04:36:46;;;;;;;;;3.00;2.00;;;;;10.58;58.90;101101.16;2168854;26;2734591;-74
2024/04/16 04:38:00;;;;;;;;;2.00;1.83;;;;;10.61;58.87;101096.72;2174292;26;2741880;-74
2024/04/16 04:39:13;;;;;;;;;7.00;4.00;;;;;10.65;58.66;101106.25;2167880;26;2756458;-74
2024/04/16 04:40:27;;;;;;;;;2.67;2.00;;;;;10.66;58.67;101108.00;2174647;26;2738160;-74
2024/04/16 04:41:41;;;;;;;;;2.83;2.83;;;;;10.67;58.79;101097.41;2183227;25;2747079;-74
2024/04/16 04:42:58;;;;;;;;;3.50;2.00;;;;;10.69;59.07;101100.03;2168939;26;2736714;-74
2024/04/16 04:44:12;;;;;;;;;5.33;4.00;;;;;10.71;58.63;101089.44;2194535;26;2745304;-74
2024/04/16 04:45:26;;;;;;;;;6.50;3.83;;;;;10.75;59.03;101091.09;2169099;26;2746088;-74
2024/04/16 04:46:40;;;;;;;;;3.17;2.00;;;;;10.75;59.05;101096.34;2168225;26;2733629;-74
2024/04/16 04:47:53;;;;;;;;;3.00;3.00;;;;;10.76;59.84;101098.94;2207293;26;2735924;-74
2024/04/16 04:49:07;;;;;;;;;5.83;1.67;;;;;10.79;59.73;101087.47;2206510;26;2740103;-74
2024/04/16 04:50:21;;;;;;;;;4.17;2.67;;;;;10.82;58.83;101097.88;2202098;26;2741890;-74
2024/04/16 04:51:34;;;;;;;;;4.50;2.00;;;;;10.84;58.65;101100.50;2155172;26;2736678;-74
2024/04/16 04:52:48;;;;;;;;;2.00;2.00;;;;;10.87;58.94;101096.00;2192116;26;2735656;-74
2024/04/16 04:54:03;;;;;;;;;3.00;3.00;;;;;10.87;58.51;101095.13;2167711;26;2740810;-73
2024/04/16 04:55:16;;;;;;;;;1.50;1.00;;;;;10.87;57.70;101089.88;2170468;26;2735674;-73
2024/04/16 04:56:30;;;;;;;;;4.50;2.50;;;;;10.86;58.72;101093.44;2194252;26;2752271;-73
2024/04/16 04:57:44;;;;;;;;;2.33;2.00;;;;;10.86;58.70;101098.69;2206493;26;2739813;-74
2024/04/16 04:58:58;;;;;;;;;7.17;2.33;;;;;10.86;58.85;101101.31;2207543;26;2743970;-74
2024/04/16 05:00:11;;;;;;;;;5.33;3.50;;;;;10.84;58.34;101092.59;2183880;25;2739822;-73
2024/04/16 05:01:25;;;;;;;;;2.17;2.00;;;;;10.83;59.25;101098.75;2183270;25;2725189;-74
2024/04/16 05:02:39;;;;;;;;;3.00;2.50;;;;;10.83;59.41;101098.75;2208738;25;2730458;-74
2024/04/16 05:03:52;;;;;;;;;2.50;2.50;;;;;10.85;58.69;101097.81;2183703;25;2737700;-74
2024/04/16 05:05:06;;;;;;;;;5.33;2.83;;;;;10.85;59.18;101096.94;2207579;26;2746549;-74
2024/04/16 05:06:20;;;;;;;;;8.33;2.83;;;;;10.82;59.40;101097.03;2183507;25;2763136;-74
2024/04/16 05:07:34;;;;;;;;;2.17;2.00;;;;;10.86;59.26;101103.94;2181504;26;2729387;-74
2024/04/16 05:08:48;;;;;;;;;3.17;2.33;;;;;10.86;59.29;101096.06;2170759;26;2738762;-74
2024/04/16 05:10:03;;;;;;;;;2.17;1.17;;;;;10.87;59.84;101101.25;2181974;26;2738766;-74
2024/04/16 05:11:17;;;;;;;;;2.83;2.50;;;;;10.86;59.04;101096.06;2207522;26;2740873;-74
2024/04/16 05:12:30;;;;;;;;;3.83;3.83;;;;;10.81;59.00;101101.44;2167987;26;2748133;-73
2024/04/16 05:13:44;;;;;;;;;3.50;2.33;;;;;10.76;59.23;101098.94;2167500;26;2739795;-73
2024/04/16 05:14:58;;;;;;;;;6.17;2.67;;;;;10.73;59.71;101111.31;2192180;26;2745039;-73
2024/04/16 05:16:12;;;;;;;;;4.17;2.33;;;;;10.71;59.65;101102.59;2168172;26;2746034;-74
2024/04/16 05:17:26;;;;;;;;;4.67;2.00;;;;;10.71;59.79;101103.47;2177458;26;2750229;-74
2024/04/16 05:18:40;;;;;;;;;6.50;3.50;;;;;10.74;59.88;101108.63;2168767;26;2737709;-74
2024/04/16 05:19:54;;;;;;;;;4.33;2.00;;;;;10.73;59.65;101099.03;2167336;26;2741880;-74
2024/04/16 05:21:08;;;;;;;;;5.50;2.67;;;;;10.74;60.99;101103.34;2172881;26;2750220;-74
2024/04/16 05:22:22;;;;;;;;;5.33;2.33;;;;;10.74;59.89;101111.25;2183181;26;2746064;-74
2024/04/16 05:23:35;;;;;;;;;6.67;2.50;;;;;10.69;59.71;101100.03;2193622;26;2754363;-73
2024/04/16 05:24:49;;;;;;;;;6.00;2.00;;;;;10.68;60.08;101099.16;2170876;26;2748149;-73
2024/04/16 05:26:04;;;;;;;;;6.67;4.33;;;;;10.72;60.32;101099.91;2180482;25;2739184;-73
2024/04/16 05:27:17;;;;;;;;;2.17;2.17;;;;;10.72;60.07;101109.59;2183622;26;2741920;-73
2024/04/16 05:28:34;;;;;;;;;4.33;2.50;;;;;10.75;60.82;101110.34;2182417;26;2741855;-73
2024/04/16 05:29:48;;;;;;;;;4.50;3.00;;;;;10.76;61.05;101112.09;2194612;25;2739847;-73
2024/04/16 05:31:01;;;;;;;;;3.33;1.50;;;;;10.72;60.10;101118.31;2168266;26;2737708;-73
2024/04/16 05:32:15;;;;;;;;;3.50;2.67;;;;;10.70;60.68;101122.75;2181180;26;2739811;-74
2024/04/16 05:33:29;;;;;;;;;2.33;2.00;;;;;10.71;61.15;101111.34;2193714;26;2739855;-74
2024/04/16 05:34:44;;;;;;;;;1.83;1.50;;;;;10.77;61.35;101116.44;2182409;26;2737736;-73
2024/04/16 05:35:58;;;;;;;;;2.00;2.00;;;;;10.80;60.56;101105.84;2177798;26;2741891;-73